Time;durP1;ratioP1;P1;durP2;ratioP2;P2;SDS_P1;SDS_P2;PMS_P1;PMS_P2;Temp;Humidity;BMP_temperature;BMP_pressure;BME280_temperature;BME280_humidity;BME280_pressure;Samples;Min_cycle;Max_cycle;Signal;HPM_P1;HPM_P2
2022/10/17 00:00:51;;;;;;;;;;;;;;;10.66;52.15;100370.75;1694429;84;20137;-73
2022/10/17 00:03:18;;;;;;;;;;;;;;;10.65;52.18;100373.06;1690631;84;21775;-70
2022/10/17 00:05:46;;;;;;;;;;;;;;;10.64;52.23;100379.35;1679712;84;20086;-71
2022/10/17 00:08:13;;;;;;;;;;;;;;;10.63;52.23;100376.37;1662988;85;20090;-71
2022/10/17 00:10:41;;;;;;;;;;;;;;;10.61;52.24;100382.31;1677563;85;20608;-72
2022/10/17 00:13:08;;;;;;;;;;;;;;;10.60;52.26;100383.80;1698105;84;20427;-72
2022/10/17 00:15:34;;;;;;;;;;;;;;;10.57;52.30;100378.28;1693699;83;21823;-71
2022/10/17 00:18:02;;;;;;;;;;;;;;;10.54;52.36;100391.39;1693376;84;20168;-72
2022/10/17 00:20:31;;;;;;;;;;;;;;;10.52;52.47;100376.08;1680376;84;20075;-70
2022/10/17 00:22:58;;;;;;;;;;;;;;;10.50;52.53;100375.39;1663115;85;20122;-72
2022/10/17 00:25:24;;;;;;;;;;;;;;;10.52;52.51;100381.39;1681202;85;20139;-69
2022/10/17 00:27:50;;;;;;;;;;;;;;;10.51;52.53;100372.22;1693967;84;21151;-70
2022/10/17 00:30:17;;;;;;;;;;;;;;;10.51;52.55;100367.73;1673216;84;20082;-70
2022/10/17 00:32:44;;;;;;;;;;;;;;;10.47;52.67;100368.19;1693434;84;20094;-71
2022/10/17 00:35:10;;;;;;;;;;;;;;;10.47;52.67;100373.02;1697940;84;20101;-70
2022/10/17 00:37:38;;;;;;;;;;;;;;;10.45;52.72;100377.62;1685661;84;20443;-70
2022/10/17 00:40:05;;;;;;;;;;;;;;;10.44;52.83;100375.13;1670079;85;21100;-72
2022/10/17 00:42:32;;;;;;;;;;;;;;;10.43;52.86;100374.77;1698155;84;20169;-71
2022/10/17 00:45:20;;;;;;;;;;;;;;;10.41;52.93;100368.28;1697301;84;20127;-72
2022/10/17 00:47:50;;;;;;;;;;;;;;;10.40;52.97;100375.09;1649428;85;20134;-72
2022/10/17 00:50:16;;;;;;;;;;;;;;;10.39;52.97;100375.58;1690920;84;20123;-70
2022/10/17 00:52:43;;;;;;;;;;;;;;;10.37;53.04;100372.23;1663046;85;21270;-73
2022/10/17 00:55:16;;;;;;;;;;;;;;;10.35;53.07;100367.53;1674249;85;20080;-71
2022/10/17 00:57:43;;;;;;;;;;;;;;;10.34;53.13;100374.34;1674719;85;20166;-72
2022/10/17 01:00:12;;;;;;;;;;;;;;;10.32;53.23;100372.33;1692679;84;20629;-71
2022/10/17 01:02:38;;;;;;;;;;;;;;;10.30;53.28;100379.59;1689501;84;20109;-72
2022/10/17 01:05:05;;;;;;;;;;;;;;;10.32;53.26;100379.83;1682068;85;21176;-72
2022/10/17 01:07:34;;;;;;;;;;;;;;;10.31;53.29;100376.81;1673609;84;20440;-70
2022/10/17 01:10:02;;;;;;;;;;;;;;;10.30;53.33;100367.62;1682266;84;20500;-71
2022/10/17 01:12:57;;;;;;;;;;;;;;;10.29;53.40;100368.14;1664757;85;20349;-71
2022/10/17 01:15:29;;;;;;;;;;;;;;;10.28;53.46;100365.13;1630495;87;20163;-70
2022/10/17 01:18:07;;;;;;;;;;;;;;;10.26;53.53;100366.27;1685749;84;20471;-71
2022/10/17 01:20:53;;;;;;;;;;;;;;;10.24;53.61;100362.43;1682622;84;20093;-73
2022/10/17 01:23:44;;;;;;;;;;;;;;;10.22;53.65;100364.89;1684794;85;20094;-71
2022/10/17 01:26:47;;;;;;;;;;;;;;;10.20;53.75;100361.03;1688478;84;20417;-71
2022/10/17 01:29:35;;;;;;;;;;;;;;;10.19;53.85;100359.86;1711643;84;20112;-72
2022/10/17 01:32:04;;;;;;;;;;;;;;;10.16;53.99;100361.48;1690726;84;21096;-72
2022/10/17 01:34:36;;;;;;;;;;;;;;;10.19;54.00;100357.20;1668667;84;20139;-72
2022/10/17 01:37:15;;;;;;;;;;;;;;;10.20;53.96;100346.89;1662001;85;20150;-70
2022/10/17 01:39:53;;;;;;;;;;;;;;;10.25;53.92;100355.27;1693044;84;20135;-71
2022/10/17 01:42:24;;;;;;;;;;;;;;;10.27;53.88;100353.32;1699839;84;20086;-71
2022/10/17 01:45:09;;;;;;;;;;;;;;;10.29;53.80;100360.66;1700951;84;21243;-72
2022/10/17 01:47:35;;;;;;;;;;;;;;;10.30;53.73;100356.98;1704918;84;20464;-72
2022/10/17 01:50:05;;;;;;;;;;;;;;;10.29;53.67;100354.84;1678781;84;20459;-71
2022/10/17 01:52:42;;;;;;;;;;;;;;;10.27;53.68;100358.64;1699751;84;20429;-72
2022/10/17 01:55:13;;;;;;;;;;;;;;;10.26;53.70;100347.64;1686762;84;20085;-70
2022/10/17 01:57:58;;;;;;;;;;;;;;;10.25;53.72;100350.79;1698490;84;21279;-70
2022/10/17 02:00:25;;;;;;;;;;;;;;;10.23;53.72;100352.77;1706633;84;20633;-71
2022/10/17 02:02:54;;;;;;;;;;;;;;;10.23;53.73;100360.75;1688211;84;20165;-73
2022/10/17 02:05:24;;;;;;;;;;;;;;;10.23;53.81;100366.06;1690874;84;20103;-70
2022/10/17 02:07:50;;;;;;;;;;;;;;;10.22;53.86;100374.20;1681301;84;20437;-70
2022/10/17 02:10:20;;;;;;;;;;;;;;;10.20;53.96;100370.83;1704372;84;22064;-72
2022/10/17 02:13:15;;;;;;;;;;;;;;;10.17;54.05;100372.44;1684782;84;20087;-72
2022/10/17 02:15:52;;;;;;;;;;;;;;;10.13;54.16;100377.23;1701095;83;20130;-71
2022/10/17 02:18:49;;;;;;;;;;;;;;;10.10;54.25;100381.96;1701164;84;20445;-71
2022/10/17 02:21:31;;;;;;;;;;;;;;;10.08;54.30;100379.95;1687023;84;20155;-71
2022/10/17 02:24:21;;;;;;;;;;;;;;;10.08;54.28;100382.61;1694497;84;21108;-72
2022/10/17 02:27:01;;;;;;;;;;;;;;;10.06;54.38;100385.91;1682829;84;20118;-73
2022/10/17 02:29:31;;;;;;;;;;;;;;;10.03;54.45;100383.05;1684133;85;20088;-71
2022/10/17 02:32:00;;;;;;;;;;;;;;;10.03;54.49;100381.72;1695842;84;20449;-70
2022/10/17 02:34:30;;;;;;;;;;;;;;;10.01;54.56;100377.53;1709526;84;20447;-70
2022/10/17 02:36:58;;;;;;;;;;;;;;;10.00;54.63;100376.69;1708275;84;21184;-70
2022/10/17 02:39:25;;;;;;;;;;;;;;;9.99;54.70;100375.48;1673647;84;20138;-70
2022/10/17 02:41:51;;;;;;;;;;;;;;;9.91;54.95;100381.53;1699698;84;20085;-70
2022/10/17 02:44:17;;;;;;;;;;;;;;;9.89;55.06;100379.52;1708673;83;20676;-69
2022/10/17 02:46:49;;;;;;;;;;;;;;;9.84;55.16;100371.14;1685630;84;20094;-73
2022/10/17 02:49:17;;;;;;;;;;;;;;;9.84;55.26;100372.46;1695691;84;21088;-72
2022/10/17 02:52:17;;;;;;;;;;;;;;;9.82;55.31;100367.30;1669082;85;20175;-70
2022/10/17 02:54:54;;;;;;;;;;;;;;;9.83;55.40;100369.45;1689724;84;20114;-72
2022/10/17 02:57:41;;;;;;;;;;;;;;;9.80;55.38;100365.77;1693810;84;20086;-72
2022/10/17 03:00:09;;;;;;;;;;;;;;;9.78;55.49;100361.91;1694875;84;20103;-71
2022/10/17 03:02:44;;;;;;;;;;;;;;;9.75;55.63;100358.21;1690975;85;21156;-70
2022/10/17 03:05:13;;;;;;;;;;;;;;;9.74;55.67;100356.55;1677949;85;20154;-70
2022/10/17 03:07:39;;;;;;;;;;;;;;;9.73;55.68;100358.85;1678886;85;20098;-71
2022/10/17 03:10:06;;;;;;;;;;;;;;;9.74;55.75;100360.54;1641674;86;20135;-70
2022/10/17 03:12:33;;;;;;;;;;;;;;;9.75;55.80;100370.17;1670259;85;20477;-71
2022/10/17 03:15:00;;;;;;;;;;;;;;;9.74;55.82;100364.53;1675336;84;21827;-71
2022/10/17 03:17:27;;;;;;;;;;;;;;;9.72;55.88;100365.17;1676315;84;20117;-72
2022/10/17 03:19:53;;;;;;;;;;;;;;;9.70;55.96;100363.13;1685149;84;20110;-72
2022/10/17 03:22:20;;;;;;;;;;;;;;;9.70;56.00;100368.44;1665318;85;20174;-70
2022/10/17 03:24:46;;;;;;;;;;;;;;;9.69;56.03;100369.44;1690920;85;20428;-71
2022/10/17 03:27:13;;;;;;;;;;;;;;;9.67;56.10;100370.05;1690803;85;21964;-71
2022/10/17 03:29:41;;;;;;;;;;;;;;;9.68;56.13;100377.05;1676622;84;20114;-71
2022/10/17 03:32:08;;;;;;;;;;;;;;;9.67;56.17;100376.69;1679011;84;20151;-72
2022/10/17 03:34:35;;;;;;;;;;;;;;;9.67;56.21;100372.70;1692928;84;20128;-70
2022/10/17 03:37:04;;;;;;;;;;;;;;;9.66;56.26;100380.34;1680332;85;20104;-71
2022/10/17 03:39:31;;;;;;;;;;;;;;;9.65;56.35;100375.16;1671463;85;21525;-72
2022/10/17 03:41:58;;;;;;;;;;;;;;;9.63;56.43;100373.14;1689187;84;20438;-72
2022/10/17 03:44:24;;;;;;;;;;;;;;;9.61;56.50;100369.80;1688963;83;20101;-71
2022/10/17 03:46:51;;;;;;;;;;;;;;;9.61;56.55;100372.45;1712977;83;20108;-69
2022/10/17 03:49:17;;;;;;;;;;;;;;;9.59;56.62;100382.39;1710271;83;20103;-71
2022/10/17 03:51:43;;;;;;;;;;;;;;;9.59;56.64;100387.22;1676451;84;21268;-70
2022/10/17 03:54:11;;;;;;;;;;;;;;;9.60;56.67;100398.17;1670611;84;20423;-71
2022/10/17 03:56:39;;;;;;;;;;;;;;;9.65;56.68;100388.44;1670663;84;20119;-72
2022/10/17 03:59:07;;;;;;;;;;;;;;;9.73;56.60;100388.56;1686655;83;20542;-72
2022/10/17 04:01:35;;;;;;;;;;;;;;;9.79;56.47;100386.67;1718152;83;20128;-71
2022/10/17 04:04:03;;;;;;;;;;;;;;;9.83;56.34;100393.36;1717566;83;21802;-72
2022/10/17 04:06:31;;;;;;;;;;;;;;;9.89;56.24;100394.13;1708090;83;20091;-71
2022/10/17 04:08:58;;;;;;;;;;;;;;;9.94;56.05;100390.06;1697262;83;20093;-72
2022/10/17 04:11:26;;;;;;;;;;;;;;;9.98;55.94;100383.98;1720754;83;20301;-70
2022/10/17 04:13:55;;;;;;;;;;;;;;;10.03;55.83;100388.37;1696062;83;20119;-70
2022/10/17 04:16:22;;;;;;;;;;;;;;;10.04;55.77;100380.72;1716417;83;21872;-71
2022/10/17 04:18:54;;;;;;;;;;;;;;;10.04;55.78;100381.23;1703878;83;20119;-72
2022/10/17 04:21:23;;;;;;;;;;;;;;;10.05;55.76;100386.39;1710769;83;20178;-72
2022/10/17 04:23:55;;;;;;;;;;;;;;;10.04;55.78;100384.70;1697660;83;20121;-70
2022/10/17 04:26:23;;;;;;;;;;;;;;;10.07;55.77;100393.72;1682088;84;20486;-70
2022/10/17 04:28:50;;;;;;;;;;;;;;;10.09;55.76;100398.92;1700705;83;21171;-71
2022/10/17 04:31:17;;;;;;;;;;;;;;;10.11;55.79;100399.60;1662890;84;20085;-71
2022/10/17 04:33:49;;;;;;;;;;;;;;;10.11;55.82;100403.11;1682754;83;20101;-71
2022/10/17 04:36:17;;;;;;;;;;;;;;;10.14;55.87;100415.30;1684221;84;20152;-71
2022/10/17 04:38:43;;;;;;;;;;;;;;;10.13;55.89;100410.95;1707693;83;20100;-71
2022/10/17 04:41:12;;;;;;;;;;;;;;;10.09;55.94;100415.68;1711852;83;21169;-71
2022/10/17 04:43:39;;;;;;;;;;;;;;;10.07;56.00;100411.49;1705871;83;20455;-72
2022/10/17 04:46:08;;;;;;;;;;;;;;;10.06;56.09;100416.48;1674738;85;20449;-71
2022/10/17 04:48:35;;;;;;;;;;;;;;;10.03;56.13;100413.63;1671012;84;20565;-71
2022/10/17 04:51:03;;;;;;;;;;;;;;;10.03;56.19;100414.95;1684961;85;20568;-71
2022/10/17 04:53:36;;;;;;;;;;;;;;;10.04;56.23;100419.78;1671508;84;21164;-72
2022/10/17 04:56:14;;;;;;;;;;;;;;;10.10;56.26;100419.19;1690733;85;20165;-72
2022/10/17 04:58:41;;;;;;;;;;;;;;;10.11;56.40;100415.55;1701027;84;20148;-72
2022/10/17 05:01:09;;;;;;;;;;;;;;;10.22;56.33;100419.41;1686703;84;20208;-71
2022/10/17 05:03:36;;;;;;;;;;;;;;;10.37;56.04;100421.94;1695562;84;20451;-73
2022/10/17 05:06:08;;;;;;;;;;;;;;;10.50;55.80;100429.09;1662833;85;21915;-72
2022/10/17 05:08:36;;;;;;;;;;;;;;;10.64;55.52;100432.57;1662136;85;20428;-70
2022/10/17 05:11:04;;;;;;;;;;;;;;;10.81;55.03;100431.80;1671473;85;20145;-73
2022/10/17 05:13:31;;;;;;;;;;;;;;;10.89;54.62;100447.87;1672637;84;20126;-72
2022/10/17 05:16:00;;;;;;;;;;;;;;;10.91;54.30;100455.20;1675323;84;20086;-72
2022/10/17 05:18:28;;;;;;;;;;;;;;;10.89;54.20;100454.52;1678509;84;21204;-72
2022/10/17 05:20:54;;;;;;;;;;;;;;;10.86;54.24;100461.95;1690052;84;20436;-71
2022/10/17 05:23:21;;;;;;;;;;;;;;;10.89;54.29;100455.86;1674857;85;20099;-71
2022/10/17 05:25:55;;;;;;;;;;;;;;;10.95;54.32;100463.74;1668801;85;20180;-70
2022/10/17 05:28:23;;;;;;;;;;;;;;;11.05;54.29;100464.00;1687037;85;20129;-68
2022/10/17 05:30:50;;;;;;;;;;;;;;;11.27;54.07;100464.56;1685883;85;21159;-72
2022/10/17 05:33:17;;;;;;;;;;;;;;;11.51;53.75;100468.32;1690403;84;20120;-71
2022/10/17 05:35:45;;;;;;;;;;;;;;;11.81;53.25;100456.43;1669639;85;20423;-71
2022/10/17 05:38:13;;;;;;;;;;;;;;;12.12;52.61;100463.52;1662931;85;20126;-73
2022/10/17 05:40:42;;;;;;;;;;;;;;;12.44;52.08;100453.52;1693000;84;20149;-73
2022/10/17 05:43:08;;;;;;;;;;;;;;;12.82;51.57;100454.38;1692786;83;21063;-74
2022/10/17 05:45:36;;;;;;;;;;;;;;;13.23;50.89;100446.02;1667620;84;20138;-70
2022/10/17 05:48:02;;;;;;;;;;;;;;;13.63;50.06;100442.06;1677522;83;20143;-74
2022/10/17 05:50:31;;;;;;;;;;;;;;;14.04;49.33;100450.41;1669108;83;20195;-73
2022/10/17 05:53:08;;;;;;;;;;;;;;;14.39;48.17;100453.19;1673483;85;20090;-72
2022/10/17 05:55:36;;;;;;;;;;;;;;;14.66;47.53;100444.75;1676185;83;21155;-73
2022/10/17 05:58:03;;;;;;;;;;;;;;;14.99;46.78;100447.30;1673735;84;20181;-72
2022/10/17 06:00:32;;;;;;;;;;;;;;;15.34;45.91;100444.06;1705299;84;20162;-72
2022/10/17 06:02:58;;;;;;;;;;;;;;;15.62;45.05;100443.89;1687606;84;20585;-73
2022/10/17 06:05:25;;;;;;;;;;;;;;;15.88;44.54;100448.37;1695212;84;20140;-74
2022/10/17 06:07:52;;;;;;;;;;;;;;;16.17;43.78;100450.78;1683132;85;21153;-72
2022/10/17 06:10:20;;;;;;;;;;;;;;;16.38;43.39;100462.48;1671447;85;20074;-71
2022/10/17 06:12:47;;;;;;;;;;;;;;;16.61;42.64;100468.64;1690815;85;20168;-74
2022/10/17 06:15:16;;;;;;;;;;;;;;;16.72;42.52;100477.25;1673682;83;20131;-75
2022/10/17 06:17:44;;;;;;;;;;;;;;;16.92;42.36;100487.23;1669387;84;20095;-76
2022/10/17 06:20:10;;;;;;;;;;;;;;;17.18;41.99;100488.92;1688685;84;21836;-74
2022/10/17 06:22:37;;;;;;;;;;;;;;;17.48;41.70;100485.66;1680781;85;20166;-73
2022/10/17 06:25:05;;;;;;;;;;;;;;;17.82;41.38;100480.45;1688565;85;20440;-72
2022/10/17 06:27:31;;;;;;;;;;;;;;;18.11;40.71;100482.16;1689336;85;20442;-75
2022/10/17 06:29:59;;;;;;;;;;;;;;;18.44;40.19;100484.58;1663208;85;20426;-69
2022/10/17 06:32:27;;;;;;;;;;;;;;;18.82;39.35;100483.69;1700507;84;21310;-68
2022/10/17 06:34:53;;;;;;;;;;;;;;;19.10;38.67;100488.52;1696068;84;20121;-72
2022/10/17 06:37:20;;;;;;;;;;;;;;;19.39;38.12;100476.61;1695231;84;20094;-72
2022/10/17 06:39:47;;;;;;;;;;;;;;;19.68;37.38;100479.48;1688203;84;20805;-73
2022/10/17 06:42:15;;;;;;;;;;;;;;;19.88;37.10;100478.98;1694245;84;20182;-69
2022/10/17 06:44:46;;;;;;;;;;;;;;;20.10;36.63;100472.88;1661612;84;21173;-68
2022/10/17 06:47:31;;;;;;;;;;;;;;;20.24;36.31;100478.08;1671710;84;20118;-69
2022/10/17 06:49:59;;;;;;;;;;;;;;;20.37;36.23;100466.94;1678035;83;20128;-69
2022/10/17 06:52:27;;;;;;;;;;;;;;;20.58;35.91;100475.65;1697637;83;20092;-70
2022/10/17 06:55:12;;;;;;;;;;;;;;;20.69;35.52;100475.01;1722036;83;20435;-70
2022/10/17 06:57:40;;;;;;;;;;;;;;;20.70;35.43;100488.01;1722898;83;21171;-70
2022/10/17 07:00:10;;;;;;;;;;;;;;;20.73;35.35;100486.20;1692844;84;20423;-68
2022/10/17 07:02:42;;;;;;;;;;;;;;;20.79;35.22;100491.61;1691476;84;20093;-67
2022/10/17 07:05:09;;;;;;;;;;;;;;;20.99;35.12;100488.03;1688233;84;20149;-69
2022/10/17 07:07:36;;;;;;;;;;;;;;;21.15;34.70;100488.91;1678809;84;20117;-68
2022/10/17 07:10:07;;;;;;;;;;;;;;;21.32;34.33;100483.34;1669573;84;21167;-68
2022/10/17 07:12:34;;;;;;;;;;;;;;;21.57;33.97;100489.64;1686923;84;20131;-68
2022/10/17 07:15:03;;;;;;;;;;;;;;;21.83;33.80;100506.25;1671280;84;20109;-69
2022/10/17 07:17:30;;;;;;;;;;;;;;;22.11;33.51;100508.88;1669461;84;20141;-68
2022/10/17 07:19:56;;;;;;;;;;;;;;;22.40;33.16;100511.45;1669523;84;20135;-69
2022/10/17 07:22:23;;;;;;;;;;;;;;;22.62;32.66;100510.05;1682547;83;21208;-68
2022/10/17 07:24:51;;;;;;;;;;;;;;;22.67;32.19;100504.77;1677745;84;20093;-69
2022/10/17 07:27:19;;;;;;;;;;;;;;;22.52;32.25;100495.30;1686047;84;20431;-68
2022/10/17 07:29:47;;;;;;;;;;;;;;;22.34;32.48;100506.95;1669447;84;20097;-69
2022/10/17 07:32:15;;;;;;;;;;;;;;;22.17;32.72;100518.53;1668146;84;20126;-68
2022/10/17 07:34:43;;;;;;;;;;;;;;;21.97;33.07;100519.53;1687435;84;20652;-69
2022/10/17 07:37:10;;;;;;;;;;;;;;;21.83;33.41;100519.27;1677810;84;20121;-66
2022/10/17 07:39:40;;;;;;;;;;;;;;;21.76;33.70;100518.49;1681715;84;20092;-68
2022/10/17 07:42:09;;;;;;;;;;;;;;;21.72;33.88;100530.79;1678593;84;20101;-68
2022/10/17 07:44:36;;;;;;;;;;;;;;;21.75;34.00;100534.94;1676083;84;20093;-67
2022/10/17 07:47:04;;;;;;;;;;;;;;;21.87;34.03;100537.31;1693842;83;21246;-67
2022/10/17 07:49:31;;;;;;;;;;;;;;;22.05;33.95;100531.46;1663057;85;20547;-68
2022/10/17 07:51:57;;;;;;;;;;;;;;;22.31;33.78;100520.10;1690124;84;20444;-67
2022/10/17 07:54:24;;;;;;;;;;;;;;;22.54;33.38;100516.23;1684926;84;20461;-67
2022/10/17 07:56:51;;;;;;;;;;;;;;;22.74;33.27;100510.11;1696869;84;20094;-69
2022/10/17 07:59:18;;;;;;;;;;;;;;;22.92;33.03;100511.48;1688474;84;21172;-68
2022/10/17 08:01:44;;;;;;;;;;;;;;;22.94;32.85;100512.63;1662972;85;20094;-68
2022/10/17 08:04:11;;;;;;;;;;;;;;;23.00;33.00;100512.55;1693234;84;20086;-68
2022/10/17 08:06:37;;;;;;;;;;;;;;;23.18;32.95;100515.77;1671860;85;20099;-68
2022/10/17 08:09:05;;;;;;;;;;;;;;;23.37;32.83;100519.34;1673378;85;20103;-67
2022/10/17 08:11:32;;;;;;;;;;;;;;;23.62;32.72;100524.14;1672882;84;21215;-68
2022/10/17 08:13:58;;;;;;;;;;;;;;;23.88;32.36;100520.48;1682709;84;20126;-69
2022/10/17 08:16:25;;;;;;;;;;;;;;;24.16;32.17;100517.70;1696811;84;20199;-67
2022/10/17 08:18:53;;;;;;;;;;;;;;;24.41;32.02;100512.88;1677999;84;20158;-67
2022/10/17 08:21:21;;;;;;;;;;;;;;;24.68;31.66;100512.72;1662982;85;20150;-68
2022/10/17 08:23:47;;;;;;;;;;;;;;;24.85;31.35;100508.75;1663130;85;21180;-67
2022/10/17 08:26:16;;;;;;;;;;;;;;;24.97;31.33;100507.70;1662948;85;20182;-68
2022/10/17 08:28:42;;;;;;;;;;;;;;;25.19;31.09;100510.59;1672789;84;20099;-68
2022/10/17 08:31:14;;;;;;;;;;;;;;;25.41;30.84;100502.59;1663045;85;20086;-69
2022/10/17 08:33:41;;;;;;;;;;;;;;;25.64;30.69;100503.36;1663066;85;20087;-69
2022/10/17 08:36:08;;;;;;;;;;;;;;;25.74;30.32;100503.55;1686625;84;21099;-68
2022/10/17 08:38:35;;;;;;;;;;;;;;;25.74;30.45;100504.91;1698178;84;20443;-66
2022/10/17 08:41:05;;;;;;;;;;;;;;;25.87;30.43;100513.84;1663120;85;20098;-70
2022/10/17 08:43:47;;;;;;;;;;;;;;;26.07;30.25;100512.86;1692763;84;20787;-67
2022/10/17 08:46:14;;;;;;;;;;;;;;;26.32;29.98;100522.31;1702628;83;20099;-68
2022/10/17 08:48:43;;;;;;;;;;;;;;;26.54;29.54;100521.00;1665916;84;21271;-67
2022/10/17 08:51:16;;;;;;;;;;;;;;;26.68;29.55;100524.22;1663119;85;20444;-68
2022/10/17 08:54:12;;;;;;;;;;;;;;;26.89;29.29;100527.03;1692708;84;20142;-68
2022/10/17 08:56:43;;;;;;;;;;;;;;;27.10;28.94;100527.30;1663345;84;20114;-69
2022/10/17 08:59:12;;;;;;;;;;;;;;;27.23;28.74;100525.03;1690920;84;20102;-66
2022/10/17 09:01:45;;;;;;;;;;;;;;;27.43;28.51;100516.27;1681652;85;21328;-69
2022/10/17 09:04:33;;;;;;;;;;;;;;;27.49;28.42;100515.25;1681477;85;20086;-69
2022/10/17 09:07:16;;;;;;;;;;;;;;;27.45;28.41;100514.93;1694711;84;20077;-68
2022/10/17 09:09:58;;;;;;;;;;;;;;;27.46;28.47;100510.30;1677498;84;20125;-69
2022/10/17 09:12:29;;;;;;;;;;;;;;;27.56;28.35;100511.23;1662819;85;20086;-69
2022/10/17 09:15:29;;;;;;;;;;;;;;;27.66;28.39;100512.45;1663055;85;20131;-68
2022/10/17 09:18:02;;;;;;;;;;;;;;;27.80;28.24;100513.67;1681976;85;20092;-68
2022/10/17 09:20:34;;;;;;;;;;;;;;;28.06;28.03;100512.86;1689872;84;20437;-69
2022/10/17 09:23:05;;;;;;;;;;;;;;;28.32;27.87;100512.52;1689889;84;20082;-69
2022/10/17 09:25:35;;;;;;;;;;;;;;;28.53;27.62;100513.80;1663410;85;20082;-68
2022/10/17 09:28:11;;;;;;;;;;;;;;;28.73;27.51;100511.78;1670734;85;21180;-69
2022/10/17 09:30:41;;;;;;;;;;;;;;;28.92;27.09;100517.08;1690856;85;20099;-68
2022/10/17 09:33:19;;;;;;;;;;;;;;;28.94;27.15;100513.52;1690940;85;20437;-69
2022/10/17 09:35:45;;;;;;;;;;;;;;;28.88;27.11;100510.49;1700850;84;20101;-68
2022/10/17 09:38:19;;;;;;;;;;;;;;;28.67;27.25;100512.83;1663169;85;20086;-69
2022/10/17 09:40:54;;;;;;;;;;;;;;;28.40;27.53;100520.25;1681740;85;21827;-69
2022/10/17 09:43:22;;;;;;;;;;;;;;;27.98;28.05;100525.06;1696668;84;20085;-69
2022/10/17 09:46:07;;;;;;;;;;;;;;;27.55;28.62;100529.27;1662617;85;20090;-69
2022/10/17 09:48:39;;;;;;;;;;;;;;;27.18;29.15;100537.78;1684291;84;20513;-69
2022/10/17 09:51:05;;;;;;;;;;;;;;;26.71;29.73;100541.47;1678360;84;21085;-69
2022/10/17 09:53:35;;;;;;;;;;;;;;;26.32;30.29;100547.40;1694222;84;22189;-68
2022/10/17 09:56:04;;;;;;;;;;;;;;;26.03;30.76;100548.48;1694365;84;20121;-68
2022/10/17 09:58:45;;;;;;;;;;;;;;;25.74;31.21;100536.78;1670825;84;20159;-68
2022/10/17 10:01:19;;;;;;;;;;;;;;;25.55;31.72;100536.14;1678480;84;20122;-67
2022/10/17 10:03:48;;;;;;;;;;;;;;;25.50;32.05;100536.57;1661035;84;20110;-68
2022/10/17 10:06:18;;;;;;;;;;;;;;;25.53;32.24;100534.73;1676461;84;21258;-68
2022/10/17 10:09:02;;;;;;;;;;;;;;;25.62;32.35;100530.03;1694233;84;20094;-68
2022/10/17 10:11:48;;;;;;;;;;;;;;;25.72;32.42;100530.75;1694418;84;20175;-68
2022/10/17 10:14:32;;;;;;;;;;;;;;;25.82;32.34;100526.02;1694206;84;20094;-68
2022/10/17 10:16:59;;;;;;;;;;;;;;;25.90;32.19;100525.63;1671821;84;20160;-68
2022/10/17 10:19:31;;;;;;;;;;;;;;;25.86;32.27;100521.75;1684456;84;21228;-68
2022/10/17 10:22:00;;;;;;;;;;;;;;;25.89;32.41;100526.16;1682014;84;20097;-67
2022/10/17 10:24:27;;;;;;;;;;;;;;;25.94;32.34;100519.42;1694208;84;20113;-68
2022/10/17 10:26:57;;;;;;;;;;;;;;;25.99;32.40;100522.80;1694239;84;20113;-69
2022/10/17 10:29:37;;;;;;;;;;;;;;;26.02;32.52;100515.50;1670759;84;20217;-68
2022/10/17 10:32:13;;;;;;;;;;;;;;;26.10;32.39;100517.79;1694360;84;21197;-68
2022/10/17 10:34:43;;;;;;;;;;;;;;;26.17;32.31;100518.52;1693991;84;20113;-68
2022/10/17 10:37:23;;;;;;;;;;;;;;;26.21;32.23;100515.56;1674320;84;20127;-68
2022/10/17 10:40:01;;;;;;;;;;;;;;;26.20;32.17;100509.28;1693870;84;20431;-68
2022/10/17 10:42:32;;;;;;;;;;;;;;;26.20;32.37;100515.30;1694358;84;20125;-68
2022/10/17 10:45:20;;;;;;;;;;;;;;;26.16;32.44;100515.48;1670963;84;21143;-67
2022/10/17 10:47:51;;;;;;;;;;;;;;;26.17;32.50;100517.98;1708259;83;20090;-68
2022/10/17 10:50:33;;;;;;;;;;;;;;;26.17;32.51;100508.44;1682347;83;20089;-68
2022/10/17 10:53:30;;;;;;;;;;;;;;;26.16;32.66;100510.03;1710984;84;20114;-69
2022/10/17 10:56:04;;;;;;;;;;;;;;;26.15;32.63;100514.65;1705818;84;20111;-69
2022/10/17 10:58:40;;;;;;;;;;;;;;;26.11;32.59;100514.00;1708363;84;21170;-68
2022/10/17 11:01:13;;;;;;;;;;;;;;;26.08;32.64;100515.33;1705419;84;20087;-67
2022/10/17 11:03:48;;;;;;;;;;;;;;;26.03;32.60;100515.77;1699736;84;20481;-67
2022/10/17 11:06:21;;;;;;;;;;;;;;;25.97;32.75;100505.88;1656031;84;20103;-67
2022/10/17 11:08:51;;;;;;;;;;;;;;;25.89;32.84;100506.27;1680243;84;20110;-68
2022/10/17 11:11:30;;;;;;;;;;;;;;;25.78;33.09;100501.97;1709575;84;22210;-68
2022/10/17 11:14:04;;;;;;;;;;;;;;;25.75;33.27;100507.10;1700437;83;20567;-67
2022/10/17 11:16:35;;;;;;;;;;;;;;;25.71;33.39;100501.30;1698679;84;20091;-68
2022/10/17 11:19:13;;;;;;;;;;;;;;;25.68;33.55;100497.70;1707328;84;20109;-69
2022/10/17 11:21:51;;;;;;;;;;;;;;;25.64;33.53;100499.80;1704822;84;20121;-68
2022/10/17 11:24:23;;;;;;;;;;;;;;;25.58;33.83;100504.33;1709610;84;21181;-68
2022/10/17 11:26:53;;;;;;;;;;;;;;;25.54;33.88;100503.17;1710904;84;20475;-66
2022/10/17 11:29:20;;;;;;;;;;;;;;;25.51;34.08;100512.36;1698989;84;20123;-67
2022/10/17 11:31:48;;;;;;;;;;;;;;;25.46;33.98;100509.01;1704399;84;20101;-70
2022/10/17 11:34:23;;;;;;;;;;;;;;;25.43;34.00;100514.91;1709991;84;20130;-69
2022/10/17 11:36:52;;;;;;;;;;;;;;;25.37;34.01;100509.05;1684868;84;21437;-69
2022/10/17 11:39:21;;;;;;;;;;;;;;;25.31;34.20;100516.02;1693075;84;20127;-69
2022/10/17 11:41:53;;;;;;;;;;;;;;;25.25;34.28;100510.16;1703152;83;20118;-68
2022/10/17 11:44:30;;;;;;;;;;;;;;;25.19;34.39;100514.67;1692403;84;20094;-66
2022/10/17 11:47:03;;;;;;;;;;;;;;;25.14;34.54;100516.77;1697384;84;20120;-69
2022/10/17 11:49:42;;;;;;;;;;;;;;;25.10;34.63;100516.96;1689309;84;21781;-69
2022/10/17 11:52:28;;;;;;;;;;;;;;;25.05;34.83;100512.77;1682572;84;20222;-68
2022/10/17 11:55:00;;;;;;;;;;;;;;;24.96;35.17;100514.20;1674251;85;20097;-68
2022/10/17 11:57:45;;;;;;;;;;;;;;;24.93;35.12;100516.55;1656590;85;20120;-70
2022/10/17 12:00:24;;;;;;;;;;;;;;;24.90;35.18;100507.50;1682458;85;20088;-69
2022/10/17 12:03:01;;;;;;;;;;;;;;;24.86;35.15;100505.81;1682515;85;21792;-67
2022/10/17 12:05:34;;;;;;;;;;;;;;;24.80;35.38;100496.39;1682457;85;20088;-68
2022/10/17 12:08:19;;;;;;;;;;;;;;;24.74;35.55;100502.78;1682559;85;20092;-68
2022/10/17 12:11:09;;;;;;;;;;;;;;;24.68;35.65;100492.84;1682428;85;20467;-68
2022/10/17 12:13:40;;;;;;;;;;;;;;;24.64;35.80;100495.20;1682629;85;20096;-68
2022/10/17 12:16:20;;;;;;;;;;;;;;;24.58;35.96;100491.53;1682374;85;21869;-69
2022/10/17 12:18:48;;;;;;;;;;;;;;;24.49;36.07;100495.69;1679647;84;20128;-70
2022/10/17 12:21:15;;;;;;;;;;;;;;;24.40;36.36;100498.45;1690415;84;20422;-69
2022/10/17 12:23:44;;;;;;;;;;;;;;;24.32;36.53;100483.88;1682503;85;20164;-69
2022/10/17 12:26:10;;;;;;;;;;;;;;;24.23;36.64;100489.34;1664702;84;20147;-69
2022/10/17 12:28:40;;;;;;;;;;;;;;;24.15;36.83;100489.69;1637978;85;21111;-68
2022/10/17 12:31:11;;;;;;;;;;;;;;;24.09;36.95;100489.25;1682385;85;20139;-68
2022/10/17 12:33:52;;;;;;;;;;;;;;;24.00;37.20;100489.80;1682390;85;20461;-69
2022/10/17 12:36:28;;;;;;;;;;;;;;;23.95;37.36;100489.98;1693656;84;20424;-69
2022/10/17 12:39:07;;;;;;;;;;;;;;;23.90;37.44;100485.78;1687091;84;20127;-67
2022/10/17 12:41:45;;;;;;;;;;;;;;;23.84;37.68;100486.70;1683630;84;22035;-68
2022/10/17 12:44:21;;;;;;;;;;;;;;;23.80;37.85;100487.41;1688650;84;20134;-70
2022/10/17 12:47:08;;;;;;;;;;;;;;;23.76;37.99;100481.59;1684131;84;20177;-68
2022/10/17 12:49:37;;;;;;;;;;;;;;;23.73;38.02;100486.66;1674095;85;20162;-67
2022/10/17 12:52:35;;;;;;;;;;;;;;;23.68;38.14;100486.00;1662955;85;20157;-68
2022/10/17 12:55:09;;;;;;;;;;;;;;;23.63;38.22;100489.94;1662982;85;21176;-68
2022/10/17 12:57:43;;;;;;;;;;;;;;;23.57;38.40;100483.27;1663014;85;20094;-68
2022/10/17 13:00:21;;;;;;;;;;;;;;;23.51;38.56;100484.17;1662885;85;20107;-68